createdAt,value
2017-07-12T00:01:43.238Z,27.83
2017-07-12T00:04:11.557Z,21.80
2017-07-12T00:06:40.296Z,20.10
2017-07-12T00:09:08.626Z,16.10
2017-07-12T00:11:36.938Z,16.40
2017-07-12T00:14:06.222Z,19.50
2017-07-12T00:16:34.533Z,20.37
2017-07-12T00:19:02.857Z,17.13
2017-07-12T00:21:31.723Z,22.33
2017-07-12T00:24:00.045Z,18.10
2017-07-12T00:26:28.380Z,24.17
2017-07-12T00:28:57.010Z,18.30
2017-07-12T00:31:25.333Z,16.93
2017-07-12T00:33:53.666Z,19.17
2017-07-12T00:36:22.282Z,20.33
2017-07-12T00:38:50.621Z,24.30
2017-07-12T00:41:19.001Z,16.43
2017-07-12T00:43:48.012Z,24.70
2017-07-12T00:46:16.335Z,16.23
2017-07-12T00:48:44.661Z,18.97
2017-07-12T00:51:13.335Z,20.30
2017-07-12T00:53:41.664Z,19.93
2017-07-12T00:56:09.988Z,20.60
2017-07-12T01:01:18.532Z,20.83
2017-07-12T01:03:46.858Z,18.47
2017-07-12T01:06:15.221Z,20.43
2017-07-12T01:08:43.859Z,20.93
2017-07-12T01:11:12.193Z,24.60
2017-07-12T01:13:40.525Z,19.97
2017-07-12T01:16:09.734Z,22.20
2017-07-12T01:18:38.034Z,20.87
2017-07-12T01:21:06.359Z,20.40
2017-07-12T01:23:35.111Z,20.80
2017-07-12T01:26:03.480Z,20.23
2017-07-12T01:28:31.844Z,21.00
2017-07-12T01:31:00.686Z,21.53
2017-07-12T01:33:29.047Z,25.13
2017-07-12T01:35:57.411Z,18.53
2017-07-12T01:38:26.341Z,26.80
2017-07-12T01:40:54.695Z,29.70
2017-07-12T01:43:23.041Z,24.63
2017-07-12T01:45:51.799Z,24.43
2017-07-12T01:48:20.137Z,20.43
2017-07-12T01:50:49.238Z,20.50
2017-07-12T01:53:18.023Z,31.23
2017-07-12T01:55:46.369Z,36.47
2017-07-12T01:58:14.714Z,24.50
2017-07-12T02:00:43.374Z,26.00
2017-07-12T02:03:11.708Z,27.00
2017-07-12T02:05:40.081Z,26.90
2017-07-12T02:08:09.269Z,34.77
2017-07-12T02:10:37.600Z,25.50
2017-07-12T02:13:05.925Z,37.10
2017-07-12T02:15:34.777Z,24.80
2017-07-12T02:18:03.975Z,24.63
2017-07-12T02:20:32.341Z,25.17
2017-07-12T02:23:01.110Z,28.47
2017-07-12T02:25:29.465Z,29.03
2017-07-12T02:27:57.806Z,37.63
2017-07-12T02:30:26.606Z,43.57
2017-07-12T02:32:54.966Z,41.27
2017-07-12T02:35:23.320Z,43.30
2017-07-12T02:37:52.865Z,48.00
2017-07-12T02:40:21.200Z,35.37
2017-07-12T02:45:21.810Z,31.63
2017-07-12T02:47:50.179Z,44.73
2017-07-12T02:50:18.565Z,38.80
2017-07-12T02:52:47.667Z,33.43
2017-07-12T02:55:16.023Z,39.30
2017-07-12T02:57:44.378Z,43.73
2017-07-12T03:00:13.986Z,38.43
2017-07-12T03:02:42.359Z,37.47
2017-07-12T03:05:11.513Z,44.90
2017-07-12T03:07:40.283Z,44.50
2017-07-12T03:10:08.629Z,41.20
2017-07-12T03:12:37.769Z,40.60
2017-07-12T03:15:06.918Z,50.43
2017-07-12T03:17:35.270Z,44.87
2017-07-12T03:20:03.625Z,43.13
2017-07-12T03:22:32.259Z,43.20
2017-07-12T03:25:01.398Z,45.77
2017-07-12T03:27:29.762Z,38.63
2017-07-12T03:29:58.668Z,49.83
2017-07-12T03:32:27.004Z,39.57
2017-07-12T03:34:55.351Z,38.27
2017-07-12T03:37:24.136Z,51.50
2017-07-12T03:39:55.213Z,42.23
2017-07-12T03:42:23.546Z,42.97
2017-07-12T03:44:52.228Z,46.40
2017-07-12T03:47:20.574Z,43.13
2017-07-12T03:49:49.681Z,46.90
2017-07-12T03:52:18.319Z,45.47
2017-07-12T03:54:46.665Z,49.67
2017-07-12T03:57:15.003Z,38.77
2017-07-12T03:59:44.313Z,54.63
2017-07-12T04:02:12.648Z,42.53
2017-07-12T04:04:40.991Z,36.83
2017-07-12T04:07:09.631Z,39.43
2017-07-12T04:09:37.975Z,40.33
2017-07-12T04:12:06.311Z,41.53
2017-07-12T04:14:34.974Z,46.30
2017-07-12T04:17:03.370Z,65.33
2017-07-12T04:19:31.743Z,60.10
2017-07-12T04:22:00.882Z,40.80
2017-07-12T04:24:29.218Z,42.97
2017-07-12T04:26:58.338Z,46.20
2017-07-12T04:29:27.122Z,44.67
2017-07-12T04:31:55.466Z,39.63
2017-07-12T04:34:23.819Z,40.40
2017-07-12T04:36:52.546Z,39.67
2017-07-12T04:39:20.927Z,44.80
2017-07-12T04:41:50.080Z,45.30
2017-07-12T04:44:19.049Z,51.03
2017-07-12T04:46:47.398Z,46.60
2017-07-12T04:49:16.504Z,50.33
2017-07-12T04:51:46.124Z,42.47
2017-07-12T04:54:14.470Z,42.43
2017-07-12T04:56:42.810Z,48.90
2017-07-12T04:59:11.563Z,44.77
2017-07-12T05:01:39.892Z,50.13
2017-07-12T05:04:08.248Z,48.33
2017-07-12T05:06:37.214Z,51.10
2017-07-12T05:09:05.562Z,39.33
2017-07-12T05:11:33.941Z,48.83
2017-07-12T05:14:02.596Z,38.40
2017-07-12T05:16:30.974Z,51.87
2017-07-12T05:18:59.323Z,41.70
2017-07-12T05:21:28.106Z,40.77
2017-07-12T05:23:56.432Z,43.53
2017-07-12T05:26:24.792Z,47.10
2017-07-12T05:28:53.968Z,47.07
2017-07-12T05:31:22.320Z,44.83
2017-07-12T05:33:50.665Z,40.17
2017-07-12T05:36:19.620Z,50.07
2017-07-12T05:38:47.967Z,39.00
2017-07-12T05:41:16.339Z,39.13
2017-07-12T05:43:44.986Z,34.80
2017-07-12T05:46:13.396Z,37.73
2017-07-12T05:48:41.763Z,44.10
2017-07-12T05:51:10.970Z,40.90
2017-07-12T05:53:39.318Z,39.13
2017-07-12T05:56:07.680Z,43.77
2017-07-12T05:58:36.562Z,42.63
2017-07-12T06:01:04.907Z,41.00
2017-07-12T06:03:33.262Z,39.90
2017-07-12T06:06:02.003Z,33.37
2017-07-12T06:08:30.344Z,32.70
2017-07-12T06:10:58.691Z,42.03
2017-07-12T06:13:28.012Z,37.47
2017-07-12T06:15:56.345Z,35.67
2017-07-12T06:18:24.679Z,31.10
2017-07-12T06:20:53.317Z,34.30
2017-07-12T06:23:21.677Z,29.97
2017-07-12T06:25:50.775Z,30.90
2017-07-12T06:28:20.391Z,35.07
2017-07-12T06:30:48.737Z,33.40
2017-07-12T06:33:17.100Z,30.30
2017-07-12T06:35:45.922Z,36.03
2017-07-12T06:38:15.064Z,38.87
2017-07-12T06:40:43.442Z,32.20
2017-07-12T06:43:12.312Z,26.90
2017-07-12T06:45:40.665Z,30.63
2017-07-12T06:48:09.781Z,29.77
2017-07-12T06:50:38.584Z,34.40
2017-07-12T06:53:06.919Z,30.73
2017-07-12T06:55:35.247Z,33.70
2017-07-12T06:58:04.229Z,31.53
2017-07-12T07:00:32.576Z,30.50
2017-07-12T07:03:00.919Z,31.80
2017-07-12T07:05:29.561Z,31.63
2017-07-12T07:07:58.688Z,27.43
2017-07-12T07:10:27.044Z,35.00
2017-07-12T07:12:55.669Z,37.40
2017-07-12T07:15:24.015Z,25.73
2017-07-12T07:17:52.364Z,32.67
2017-07-12T07:20:22.062Z,28.30
2017-07-12T07:22:50.443Z,25.17
2017-07-12T07:25:18.785Z,26.10
2017-07-12T07:27:47.659Z,25.97
2017-07-12T07:30:16.000Z,22.40
2017-07-12T07:32:45.124Z,28.60
2017-07-12T07:35:13.814Z,29.00
2017-07-12T07:37:42.200Z,27.03
2017-07-12T07:40:10.533Z,30.67
2017-07-12T07:42:39.559Z,30.97
2017-07-12T07:45:07.907Z,28.50
2017-07-12T07:47:36.256Z,29.47
2017-07-12T07:50:05.033Z,27.47
2017-07-12T07:52:33.408Z,31.67
2017-07-12T07:55:01.761Z,34.80
2017-07-12T07:57:30.524Z,29.57
2017-07-12T07:59:58.888Z,32.70
2017-07-12T08:02:27.283Z,32.73
2017-07-12T08:04:56.825Z,32.27
2017-07-12T08:07:25.180Z,36.23
2017-07-12T08:09:53.533Z,33.53
2017-07-12T08:12:22.401Z,30.03
2017-07-12T08:14:50.744Z,27.53
2017-07-12T08:17:19.112Z,28.37
2017-07-12T08:19:48.421Z,29.20
2017-07-12T08:22:16.764Z,28.37
2017-07-12T08:24:45.118Z,29.13
2017-07-12T08:27:14.413Z,33.40
2017-07-12T08:29:42.763Z,28.50
2017-07-12T08:32:11.114Z,28.80
2017-07-12T08:34:40.573Z,30.27
2017-07-12T08:37:08.906Z,36.00
2017-07-12T08:39:37.267Z,30.77
2017-07-12T08:42:06.201Z,39.33
2017-07-12T08:44:34.536Z,27.83
2017-07-12T08:47:02.923Z,29.60
2017-07-12T08:49:31.662Z,26.10
2017-07-12T08:52:00.001Z,27.20
2017-07-12T08:54:29.113Z,26.90
2017-07-12T08:56:58.723Z,37.20
2017-07-12T08:59:27.057Z,26.40
2017-07-12T09:01:55.398Z,24.63
2017-07-12T09:04:24.214Z,24.63
2017-07-12T09:06:52.557Z,27.10
2017-07-12T09:09:20.922Z,23.30
2017-07-12T09:11:49.845Z,24.27
2017-07-12T09:14:18.196Z,27.10
2017-07-12T09:16:46.551Z,21.90
2017-07-12T09:19:15.275Z,21.60
2017-07-12T09:21:43.747Z,23.83
2017-07-12T09:24:12.153Z,24.27
2017-07-12T09:34:07.037Z,19.93
2017-07-12T09:36:35.383Z,18.90
2017-07-12T09:39:03.866Z,22.80
2017-07-12T09:41:32.754Z,18.83
2017-07-12T09:44:01.088Z,17.47
2017-07-12T09:46:29.444Z,16.93
2017-07-12T09:48:58.082Z,18.73
2017-07-12T09:51:26.417Z,18.03
2017-07-12T09:53:54.758Z,20.73
2017-07-12T09:56:23.722Z,20.83
2017-07-12T09:58:52.052Z,21.00
2017-07-12T10:01:20.403Z,18.13
2017-07-12T10:03:49.375Z,16.37
2017-07-12T10:06:17.701Z,16.83
2017-07-12T10:08:46.040Z,18.93
2017-07-12T10:11:14.730Z,22.63
2017-07-12T10:13:43.105Z,22.83
2017-07-12T10:16:11.461Z,33.40
2017-07-12T10:18:40.454Z,18.33
2017-07-12T10:21:08.801Z,18.30
2017-07-12T10:23:37.271Z,17.30
2017-07-12T10:26:05.945Z,18.27
2017-07-12T10:28:34.446Z,19.13
2017-07-12T10:31:02.821Z,18.27
2017-07-12T10:33:31.773Z,19.80
2017-07-12T10:36:00.152Z,20.73
2017-07-12T10:38:28.529Z,18.90
2017-07-12T10:40:57.402Z,25.87
2017-07-12T10:43:25.803Z,24.27
2017-07-12T10:45:54.139Z,17.37
2017-07-12T10:48:23.101Z,24.10
2017-07-12T10:50:51.450Z,19.33
2017-07-12T10:53:19.791Z,16.73
2017-07-12T10:55:48.442Z,15.60
2017-07-12T10:58:16.850Z,14.53
2017-07-12T11:00:45.232Z,14.83
2017-07-12T11:03:14.104Z,13.53
2017-07-12T11:05:42.466Z,15.63
2017-07-12T11:08:10.804Z,18.07
2017-07-12T11:10:40.278Z,14.57
2017-07-12T11:13:08.647Z,15.83
2017-07-12T11:15:37.026Z,15.30
2017-07-12T11:18:05.690Z,18.93
2017-07-12T11:20:34.021Z,19.00
2017-07-12T11:23:03.200Z,18.10
2017-07-12T11:25:32.070Z,12.30
2017-07-12T11:28:00.422Z,12.53
2017-07-12T11:30:28.768Z,15.80
2017-07-12T11:32:57.574Z,13.27
2017-07-12T11:35:25.978Z,33.03
2017-07-12T11:37:54.319Z,14.27
2017-07-12T11:40:22.934Z,12.30
2017-07-12T11:42:51.321Z,15.77
2017-07-12T11:45:19.680Z,10.90
2017-07-12T11:47:48.414Z,12.30
2017-07-12T11:50:16.777Z,9.93
2017-07-12T11:52:45.154Z,8.67
2017-07-12T11:55:13.817Z,9.97
2017-07-12T11:57:42.158Z,9.83
2017-07-12T12:00:10.510Z,9.97
2017-07-12T12:02:39.407Z,9.83
2017-07-12T12:05:07.740Z,9.40
2017-07-12T12:07:36.100Z,9.93
2017-07-12T12:10:05.094Z,9.60
2017-07-12T12:12:34.201Z,9.97
2017-07-12T12:15:03.307Z,11.10
2017-07-12T12:17:32.091Z,8.87
2017-07-12T12:20:00.430Z,9.30
2017-07-12T12:22:28.769Z,8.90
2017-07-12T12:24:57.736Z,9.70
2017-07-12T12:27:26.089Z,9.20
2017-07-12T12:29:54.447Z,10.30
2017-07-12T12:32:23.390Z,10.27
2017-07-12T12:34:51.757Z,10.70
2017-07-12T12:37:20.893Z,9.63
2017-07-12T12:39:49.517Z,11.27
2017-07-12T12:42:17.874Z,10.50
2017-07-12T12:44:46.205Z,11.27
2017-07-12T12:47:14.893Z,10.73
2017-07-12T12:49:43.218Z,10.47
2017-07-12T12:52:11.588Z,10.70
2017-07-12T12:54:40.654Z,11.20
2017-07-12T12:57:08.999Z,10.90
2017-07-12T12:59:37.350Z,9.80
2017-07-12T13:02:06.216Z,10.03
2017-07-12T13:04:40.147Z,10.73
2017-07-12T13:07:09.111Z,9.50
2017-07-12T13:09:37.435Z,9.47
2017-07-12T13:12:05.800Z,14.90
2017-07-12T13:14:34.643Z,7.77
2017-07-12T13:17:03.819Z,7.80
2017-07-12T13:19:32.076Z,6.80
2017-07-12T13:22:00.703Z,6.23
2017-07-12T13:24:29.079Z,6.90
2017-07-12T13:26:57.543Z,7.87
2017-07-12T13:29:26.479Z,6.70
2017-07-12T13:31:54.826Z,6.70
2017-07-12T13:34:23.943Z,7.13
2017-07-12T13:36:52.817Z,10.17
2017-07-12T13:39:21.935Z,6.77
2017-07-12T13:41:50.268Z,6.37
2017-07-12T13:44:18.998Z,6.70
2017-07-12T13:46:47.327Z,6.63
2017-07-12T13:49:15.662Z,8.43
2017-07-12T13:51:44.444Z,6.67
2017-07-12T13:54:12.795Z,6.13
2017-07-12T13:56:41.918Z,10.97
2017-07-12T13:59:11.110Z,7.67
2017-07-12T14:01:39.439Z,6.60
2017-07-12T14:04:07.800Z,5.80
2017-07-12T14:06:36.559Z,6.80
2017-07-12T14:09:04.912Z,5.63
2017-07-12T14:11:34.011Z,3.70
2017-07-12T14:14:03.442Z,3.63
2017-07-12T14:16:31.800Z,5.33
2017-07-12T14:19:00.956Z,2.80
2017-07-12T14:21:29.678Z,3.40
2017-07-12T14:23:58.035Z,3.97
2017-07-12T14:26:26.351Z,3.53
2017-07-12T14:28:55.567Z,6.57
2017-07-12T14:31:23.908Z,3.97
2017-07-12T14:33:52.336Z,3.13
2017-07-12T14:36:20.927Z,7.37
2017-07-12T14:38:49.257Z,11.20
2017-07-12T14:41:17.585Z,3.87
2017-07-12T14:43:46.632Z,3.63
2017-07-12T14:46:14.963Z,4.27
2017-07-12T14:48:43.298Z,4.87
2017-07-12T14:51:12.677Z,4.20
2017-07-12T14:53:41.048Z,5.47
2017-07-12T14:56:09.412Z,5.20
2017-07-12T14:58:38.349Z,5.30
2017-07-12T15:01:06.706Z,4.70
2017-07-12T15:03:35.045Z,5.03
2017-07-12T15:06:03.770Z,7.87
2017-07-12T15:08:32.097Z,5.20
2017-07-12T15:11:00.442Z,3.87
2017-07-12T15:13:29.859Z,4.40
2017-07-12T15:15:58.203Z,4.50
2017-07-12T15:18:26.546Z,9.50
2017-07-12T15:20:55.177Z,4.97
2017-07-12T15:23:23.520Z,11.83
2017-07-12T15:25:51.860Z,4.10
2017-07-12T15:28:20.638Z,15.83
2017-07-12T15:30:49.748Z,5.00
2017-07-12T15:33:18.097Z,7.97
2017-07-12T15:35:46.812Z,6.00
2017-07-12T15:38:15.129Z,3.87
2017-07-12T15:40:43.481Z,11.80
2017-07-12T15:43:12.201Z,3.57
2017-07-12T15:45:40.533Z,2.73
2017-07-12T15:48:08.878Z,3.23
2017-07-12T15:50:38.127Z,5.00
2017-07-12T15:53:06.455Z,3.40
2017-07-12T15:55:34.799Z,3.37
2017-07-12T15:58:03.559Z,3.07
2017-07-12T16:00:31.902Z,2.30
2017-07-12T16:03:00.256Z,2.53
2017-07-12T16:05:29.170Z,3.90
2017-07-12T16:07:57.506Z,1.93
2017-07-12T16:10:25.844Z,4.87
2017-07-12T16:12:55.591Z,2.47
2017-07-12T16:15:23.933Z,3.03
2017-07-12T16:17:52.274Z,9.27
2017-07-12T16:20:21.096Z,3.70
2017-07-12T16:22:49.441Z,2.50
2017-07-12T16:25:17.789Z,2.53
2017-07-12T16:27:46.555Z,2.70
2017-07-12T16:30:14.890Z,8.33
2017-07-12T16:32:43.216Z,2.33
2017-07-12T16:35:12.849Z,2.47
2017-07-12T16:37:41.259Z,3.40
2017-07-12T16:40:09.542Z,1.83
2017-07-12T16:42:38.218Z,3.20
2017-07-12T16:45:06.567Z,3.93
2017-07-12T16:47:34.922Z,3.53
2017-07-12T16:50:03.561Z,3.10
2017-07-12T16:52:32.006Z,4.07
2017-07-12T16:55:00.346Z,5.33
2017-07-12T16:57:29.401Z,4.60
2017-07-12T16:59:57.749Z,4.40
2017-07-12T17:02:26.080Z,5.40
2017-07-12T17:04:54.813Z,4.73
2017-07-12T17:07:23.153Z,3.80
2017-07-12T17:09:51.579Z,16.37
2017-07-12T17:12:20.150Z,7.83
2017-07-12T17:14:49.245Z,5.63
2017-07-12T17:17:18.342Z,6.00
2017-07-12T17:19:47.965Z,6.00
2017-07-12T17:22:16.292Z,12.93
2017-07-12T17:24:44.663Z,20.93
2017-07-12T17:27:13.410Z,6.80
2017-07-12T17:29:41.740Z,13.03
2017-07-12T17:32:10.078Z,11.93
2017-07-12T17:34:38.793Z,14.33
2017-07-12T17:37:07.130Z,21.70
2017-07-12T17:39:35.514Z,24.17
2017-07-12T17:42:04.293Z,9.63
2017-07-12T17:44:32.624Z,15.60
2017-07-12T17:47:00.963Z,13.40
2017-07-12T17:49:29.636Z,17.53
2017-07-12T17:51:58.012Z,7.80
2017-07-12T17:54:26.354Z,11.73
2017-07-12T17:56:55.187Z,9.57
2017-07-12T17:59:23.538Z,9.70
2017-07-12T18:01:51.878Z,11.23
2017-07-12T18:04:20.623Z,11.63
2017-07-12T18:06:48.991Z,9.73
2017-07-12T18:09:18.128Z,15.50
2017-07-12T18:11:46.910Z,11.20
2017-07-12T18:14:15.256Z,18.50
2017-07-12T18:16:44.379Z,12.00
2017-07-12T18:19:13.161Z,9.23
2017-07-12T18:21:41.499Z,8.60
2017-07-12T18:24:09.840Z,20.67
2017-07-12T18:26:38.819Z,12.37
2017-07-12T18:29:07.170Z,9.40
2017-07-12T18:31:36.659Z,11.57
2017-07-12T18:34:05.496Z,18.13
2017-07-12T18:36:33.833Z,14.87
2017-07-12T18:39:02.163Z,7.93
2017-07-12T18:41:30.933Z,7.50
2017-07-12T18:43:59.277Z,14.83
2017-07-12T18:46:27.642Z,11.53
2017-07-12T18:48:56.886Z,13.80
2017-07-12T18:51:26.013Z,12.43
2017-07-12T18:53:54.353Z,9.07
2017-07-12T18:56:23.254Z,10.33
2017-07-12T18:58:51.591Z,12.00
2017-07-12T19:01:19.934Z,13.50
2017-07-12T19:03:48.538Z,14.93
2017-07-12T19:06:17.624Z,15.90
2017-07-12T19:08:46.012Z,13.57
2017-07-12T19:11:14.971Z,10.67
2017-07-12T19:13:43.319Z,18.30
2017-07-12T19:16:11.655Z,29.17
2017-07-12T19:18:40.406Z,7.30
2017-07-12T19:21:08.759Z,19.00
2017-07-12T19:23:37.102Z,11.97
2017-07-12T19:26:05.761Z,14.37
2017-07-12T19:28:34.097Z,9.03
2017-07-12T19:31:02.447Z,13.50
2017-07-12T19:33:31.768Z,5.40
2017-07-12T19:36:00.116Z,19.80
2017-07-12T19:38:28.471Z,19.47
2017-07-12T19:40:57.137Z,7.73
2017-07-12T19:43:25.485Z,16.93
2017-07-12T19:45:53.820Z,7.60
2017-07-12T19:48:22.481Z,16.40
2017-07-12T19:50:51.578Z,16.57
2017-07-12T19:53:20.699Z,13.80
2017-07-12T19:55:49.683Z,9.60
2017-07-12T19:58:18.032Z,10.77
2017-07-12T20:00:46.358Z,7.93
2017-07-12T20:03:15.168Z,19.50
2017-07-12T20:05:43.513Z,35.93
2017-07-12T20:08:11.873Z,12.20
2017-07-12T20:10:40.793Z,13.30
2017-07-12T20:13:09.191Z,10.10
2017-07-12T20:15:37.523Z,7.83
2017-07-12T20:18:06.777Z,17.77
2017-07-12T20:20:35.098Z,11.47
2017-07-12T20:23:03.454Z,12.30
2017-07-12T20:25:32.061Z,7.17
2017-07-12T20:28:00.412Z,16.90
2017-07-12T20:30:28.749Z,11.33
2017-07-12T20:32:57.542Z,7.93
2017-07-12T20:35:25.892Z,16.70
2017-07-12T20:37:54.240Z,24.40
2017-07-12T20:40:22.934Z,20.57
2017-07-12T20:42:51.287Z,15.30
2017-07-12T20:45:19.678Z,20.20
2017-07-12T20:47:48.406Z,54.33
2017-07-12T20:50:17.546Z,16.63
2017-07-12T20:52:45.897Z,11.97
2017-07-12T20:55:14.540Z,19.73
2017-07-12T20:57:42.894Z,24.00
2017-07-12T21:00:11.251Z,11.63
2017-07-12T21:02:40.064Z,27.63
2017-07-12T21:05:08.406Z,13.90
2017-07-12T21:07:36.746Z,19.03
2017-07-12T21:10:05.604Z,10.93
2017-07-12T21:12:33.957Z,14.83
2017-07-12T21:15:02.306Z,26.57
2017-07-12T21:17:30.969Z,23.70
2017-07-12T21:19:59.419Z,14.30
2017-07-12T21:22:27.864Z,20.23
2017-07-12T21:24:57.674Z,15.40
2017-07-12T21:27:26.046Z,18.70
2017-07-12T21:29:54.398Z,16.37
2017-07-12T21:32:23.026Z,18.70
2017-07-12T21:34:51.367Z,17.80
2017-07-12T21:37:19.698Z,14.80
2017-07-12T21:39:48.582Z,15.80
2017-07-12T21:42:16.922Z,10.50
2017-07-12T21:44:45.276Z,11.37
2017-07-12T21:47:14.049Z,8.23
2017-07-12T21:49:42.374Z,13.63
2017-07-12T21:52:10.714Z,41.80
2017-07-12T21:55:02.602Z,15.43
2017-07-12T21:57:54.130Z,26.77
2017-07-12T22:00:46.268Z,14.70
2017-07-12T22:03:37.648Z,23.23
2017-07-12T22:06:30.126Z,7.27
2017-07-12T22:09:21.882Z,20.40
2017-07-12T22:12:13.589Z,19.40
2017-07-12T22:15:05.217Z,11.00
2017-07-12T22:17:57.078Z,21.63
2017-07-12T22:20:48.531Z,25.40
2017-07-12T22:23:40.740Z,13.83
2017-07-12T22:26:32.404Z,10.90
2017-07-12T22:29:24.372Z,22.37
2017-07-12T22:32:15.917Z,11.17
2017-07-12T22:35:07.776Z,19.63
2017-07-12T22:37:41.574Z,23.20
2017-07-12T22:40:15.675Z,16.60
2017-07-12T22:42:49.589Z,19.27
2017-07-12T22:45:18.256Z,18.07
2017-07-12T22:47:46.603Z,36.30
2017-07-12T22:50:14.946Z,28.87
2017-07-12T22:52:43.765Z,24.00
2017-07-12T22:55:12.110Z,14.37
2017-07-12T22:57:40.463Z,17.30
2017-07-12T23:00:09.298Z,17.93
2017-07-12T23:02:37.637Z,19.13
2017-07-12T23:05:05.970Z,36.87
2017-07-12T23:07:34.857Z,24.50
2017-07-12T23:10:03.179Z,21.10
2017-07-12T23:12:31.515Z,15.77
2017-07-12T23:15:00.158Z,20.30
2017-07-12T23:17:28.499Z,21.40
2017-07-12T23:19:56.826Z,21.30
2017-07-12T23:22:25.761Z,13.93
2017-07-12T23:24:54.119Z,22.30
2017-07-12T23:27:23.210Z,19.57
2017-07-12T23:29:52.015Z,26.33
2017-07-12T23:32:20.363Z,11.87
2017-07-12T23:34:48.714Z,13.50
2017-07-12T23:37:17.403Z,17.77
2017-07-12T23:39:45.725Z,27.70
2017-07-12T23:42:14.064Z,18.17
2017-07-12T23:44:42.930Z,28.97
2017-07-12T23:47:11.268Z,18.87
2017-07-12T23:49:39.609Z,16.10
2017-07-12T23:52:08.282Z,16.20
2017-07-12T23:54:36.643Z,22.77
2017-07-12T23:57:04.982Z,12.83
2017-07-12T23:59:33.607Z,20.57
